sensor_id;sensor_type;location;lat;lon;timestamp;P1;durP1;ratioP1;P2;durP2;ratioP2
25107;SDS011;13090;53.422;7.670;2022-08-03T00:02:23;3.75;;;3.08;;
25107;SDS011;13090;53.422;7.670;2022-08-03T00:07:25;9.20;;;3.80;;
25107;SDS011;13090;53.422;7.670;2022-08-03T00:12:28;5.30;;;3.88;;
25107;SDS011;13090;53.422;7.670;2022-08-03T00:17:32;6.15;;;3.97;;
25107;SDS011;13090;53.422;7.670;2022-08-03T00:22:54;8.13;;;4.10;;
25107;SDS011;13090;53.422;7.670;2022-08-03T00:27:56;4.65;;;3.65;;
25107;SDS011;13090;53.422;7.670;2022-08-03T00:33:00;4.13;;;3.20;;
25107;SDS011;13090;53.422;7.670;2022-08-03T00:38:04;4.45;;;3.55;;
25107;SDS011;13090;53.422;7.670;2022-08-03T00:43:06;5.93;;;3.22;;
25107;SDS011;13090;53.422;7.670;2022-08-03T00:48:11;5.05;;;3.42;;
25107;SDS011;13090;53.422;7.670;2022-08-03T00:53:33;7.57;;;3.28;;
25107;SDS011;13090;53.422;7.670;2022-08-03T00:58:37;5.35;;;3.95;;
25107;SDS011;13090;53.422;7.670;2022-08-03T01:03:41;8.10;;;3.42;;
25107;SDS011;13090;53.422;7.670;2022-08-03T01:08:46;7.00;;;3.85;;
25107;SDS011;13090;53.422;7.670;2022-08-03T01:13:56;10.35;;;4.40;;
25107;SDS011;13090;53.422;7.670;2022-08-03T01:19:28;4.78;;;3.25;;
25107;SDS011;13090;53.422;7.670;2022-08-03T01:24:41;8.25;;;3.63;;
25107;SDS011;13090;53.422;7.670;2022-08-03T01:29:55;6.22;;;3.75;;
25107;SDS011;13090;53.422;7.670;2022-08-03T01:35:02;6.20;;;3.22;;
25107;SDS011;13090;53.422;7.670;2022-08-03T01:40:10;5.50;;;2.60;;
25107;SDS011;13090;53.422;7.670;2022-08-03T01:45:16;7.50;;;2.53;;
25107;SDS011;13090;53.422;7.670;2022-08-03T01:50:21;5.20;;;2.28;;
25107;SDS011;13090;53.422;7.670;2022-08-03T01:55:25;5.22;;;2.33;;
25107;SDS011;13090;53.422;7.670;2022-08-03T02:00:31;7.38;;;2.72;;
25107;SDS011;13090;53.422;7.670;2022-08-03T02:05:35;4.37;;;2.00;;
25107;SDS011;13090;53.422;7.670;2022-08-03T02:10:39;2.95;;;2.10;;
25107;SDS011;13090;53.422;7.670;2022-08-03T02:15:45;5.03;;;2.30;;
25107;SDS011;13090;53.422;7.670;2022-08-03T02:20:48;6.07;;;1.75;;
25107;SDS011;13090;53.422;7.670;2022-08-03T02:25:53;9.32;;;2.90;;
25107;SDS011;13090;53.422;7.670;2022-08-03T02:31:04;3.85;;;1.85;;
25107;SDS011;13090;53.422;7.670;2022-08-03T02:36:12;5.75;;;2.05;;
25107;SDS011;13090;53.422;7.670;2022-08-03T02:41:20;5.30;;;2.25;;
25107;SDS011;13090;53.422;7.670;2022-08-03T02:46:27;2.78;;;1.38;;
25107;SDS011;13090;53.422;7.670;2022-08-03T02:51:34;4.97;;;1.70;;
25107;SDS011;13090;53.422;7.670;2022-08-03T02:56:39;6.78;;;2.40;;
25107;SDS011;13090;53.422;7.670;2022-08-03T03:01:44;4.05;;;1.52;;
25107;SDS011;13090;53.422;7.670;2022-08-03T03:06:48;7.32;;;2.08;;
25107;SDS011;13090;53.422;7.670;2022-08-03T03:11:52;5.85;;;2.08;;
25107;SDS011;13090;53.422;7.670;2022-08-03T03:16:56;3.85;;;2.10;;
25107;SDS011;13090;53.422;7.670;2022-08-03T03:21:59;5.32;;;1.90;;
25107;SDS011;13090;53.422;7.670;2022-08-03T03:27:03;6.60;;;2.20;;
25107;SDS011;13090;53.422;7.670;2022-08-03T03:32:07;3.92;;;2.33;;
25107;SDS011;13090;53.422;7.670;2022-08-03T03:37:10;4.88;;;2.15;;
25107;SDS011;13090;53.422;7.670;2022-08-03T03:42:13;9.93;;;2.17;;
25107;SDS011;13090;53.422;7.670;2022-08-03T03:47:17;6.80;;;2.20;;
25107;SDS011;13090;53.422;7.670;2022-08-03T03:52:33;4.85;;;2.08;;
25107;SDS011;13090;53.422;7.670;2022-08-03T03:57:35;9.82;;;5.95;;
25107;SDS011;13090;53.422;7.670;2022-08-03T04:02:39;6.72;;;3.10;;
25107;SDS011;13090;53.422;7.670;2022-08-03T04:07:43;6.93;;;3.22;;
25107;SDS011;13090;53.422;7.670;2022-08-03T04:12:53;6.22;;;3.25;;
25107;SDS011;13090;53.422;7.670;2022-08-03T04:17:59;10.38;;;3.65;;
25107;SDS011;13090;53.422;7.670;2022-08-03T04:23:03;13.05;;;7.22;;
25107;SDS011;13090;53.422;7.670;2022-08-03T04:28:16;9.25;;;6.13;;
25107;SDS011;13090;53.422;7.670;2022-08-03T04:33:34;6.15;;;3.45;;
25107;SDS011;13090;53.422;7.670;2022-08-03T04:43:44;4.50;;;3.33;;
25107;SDS011;13090;53.422;7.670;2022-08-03T04:48:51;8.98;;;3.40;;
25107;SDS011;13090;53.422;7.670;2022-08-03T04:53:54;4.43;;;2.85;;
25107;SDS011;13090;53.422;7.670;2022-08-03T04:58:56;4.35;;;2.72;;
25107;SDS011;13090;53.422;7.670;2022-08-03T05:04:00;8.25;;;2.60;;
25107;SDS011;13090;53.422;7.670;2022-08-03T05:09:02;5.32;;;2.35;;
25107;SDS011;13090;53.422;7.670;2022-08-03T05:14:05;5.53;;;1.90;;
25107;SDS011;13090;53.422;7.670;2022-08-03T05:19:09;7.78;;;2.50;;
25107;SDS011;13090;53.422;7.670;2022-08-03T05:24:11;3.88;;;2.00;;
25107;SDS011;13090;53.422;7.670;2022-08-03T05:29:14;16.55;;;7.78;;
25107;SDS011;13090;53.422;7.670;2022-08-03T05:34:17;5.95;;;2.97;;
25107;SDS011;13090;53.422;7.670;2022-08-03T05:39:20;7.15;;;2.50;;
25107;SDS011;13090;53.422;7.670;2022-08-03T05:44:22;2.80;;;1.52;;
25107;SDS011;13090;53.422;7.670;2022-08-03T05:49:26;4.88;;;2.00;;
25107;SDS011;13090;53.422;7.670;2022-08-03T05:54:29;7.88;;;2.00;;
25107;SDS011;13090;53.422;7.670;2022-08-03T05:59:52;3.42;;;1.88;;
25107;SDS011;13090;53.422;7.670;2022-08-03T06:05:00;8.60;;;2.22;;
25107;SDS011;13090;53.422;7.670;2022-08-03T06:10:03;4.68;;;2.08;;
25107;SDS011;13090;53.422;7.670;2022-08-03T06:15:27;3.63;;;1.70;;
25107;SDS011;13090;53.422;7.670;2022-08-03T06:20:31;3.72;;;2.03;;
25107;SDS011;13090;53.422;7.670;2022-08-03T06:25:33;4.47;;;1.80;;
25107;SDS011;13090;53.422;7.670;2022-08-03T06:30:36;3.00;;;1.77;;
25107;SDS011;13090;53.422;7.670;2022-08-03T06:35:40;10.73;;;2.10;;
25107;SDS011;13090;53.422;7.670;2022-08-03T06:40:45;6.10;;;1.88;;
25107;SDS011;13090;53.422;7.670;2022-08-03T06:45:51;5.80;;;1.70;;
25107;SDS011;13090;53.422;7.670;2022-08-03T06:50:55;4.07;;;1.60;;
25107;SDS011;13090;53.422;7.670;2022-08-03T06:55:57;7.25;;;1.80;;
25107;SDS011;13090;53.422;7.670;2022-08-03T07:01:00;8.23;;;1.70;;
25107;SDS011;13090;53.422;7.670;2022-08-03T07:06:04;9.93;;;1.73;;
25107;SDS011;13090;53.422;7.670;2022-08-03T07:11:07;4.22;;;1.70;;
25107;SDS011;13090;53.422;7.670;2022-08-03T07:16:09;6.60;;;1.50;;
25107;SDS011;13090;53.422;7.670;2022-08-03T07:21:13;7.00;;;1.67;;
25107;SDS011;13090;53.422;7.670;2022-08-03T07:26:16;6.18;;;1.80;;
25107;SDS011;13090;53.422;7.670;2022-08-03T07:31:18;4.47;;;1.42;;
25107;SDS011;13090;53.422;7.670;2022-08-03T07:36:23;7.00;;;1.90;;
25107;SDS011;13090;53.422;7.670;2022-08-03T07:41:25;5.60;;;1.65;;
25107;SDS011;13090;53.422;7.670;2022-08-03T07:46:28;5.53;;;1.80;;
25107;SDS011;13090;53.422;7.670;2022-08-03T07:51:32;5.25;;;1.45;;
25107;SDS011;13090;53.422;7.670;2022-08-03T07:56:35;5.50;;;1.27;;
25107;SDS011;13090;53.422;7.670;2022-08-03T08:01:38;6.63;;;1.30;;
25107;SDS011;13090;53.422;7.670;2022-08-03T08:06:42;6.32;;;1.40;;
25107;SDS011;13090;53.422;7.670;2022-08-03T08:11:44;5.15;;;1.58;;
25107;SDS011;13090;53.422;7.670;2022-08-03T08:16:47;4.95;;;1.63;;
25107;SDS011;13090;53.422;7.670;2022-08-03T08:21:51;3.90;;;1.33;;
25107;SDS011;13090;53.422;7.670;2022-08-03T08:27:03;5.78;;;1.50;;
25107;SDS011;13090;53.422;7.670;2022-08-03T08:32:06;6.57;;;1.58;;
25107;SDS011;13090;53.422;7.670;2022-08-03T08:37:10;5.68;;;1.63;;
25107;SDS011;13090;53.422;7.670;2022-08-03T08:42:12;8.07;;;2.03;;
25107;SDS011;13090;53.422;7.670;2022-08-03T08:47:17;4.63;;;1.10;;
25107;SDS011;13090;53.422;7.670;2022-08-03T08:52:23;4.65;;;1.70;;
25107;SDS011;13090;53.422;7.670;2022-08-03T08:57:33;4.88;;;1.40;;
25107;SDS011;13090;53.422;7.670;2022-08-03T09:02:45;8.15;;;1.67;;
25107;SDS011;13090;53.422;7.670;2022-08-03T09:07:49;5.63;;;1.80;;
25107;SDS011;13090;53.422;7.670;2022-08-03T09:12:52;3.15;;;1.20;;
25107;SDS011;13090;53.422;7.670;2022-08-03T09:17:55;2.33;;;1.13;;
25107;SDS011;13090;53.422;7.670;2022-08-03T09:23:00;7.05;;;1.63;;
25107;SDS011;13090;53.422;7.670;2022-08-03T09:33:48;6.63;;;1.55;;
25107;SDS011;13090;53.422;7.670;2022-08-03T09:39:01;6.57;;;2.28;;
25107;SDS011;13090;53.422;7.670;2022-08-03T09:44:04;6.50;;;1.55;;
25107;SDS011;13090;53.422;7.670;2022-08-03T09:49:08;11.63;;;2.22;;
25107;SDS011;13090;53.422;7.670;2022-08-03T09:54:23;7.57;;;1.77;;
25107;SDS011;13090;53.422;7.670;2022-08-03T09:59:27;5.60;;;1.52;;
25107;SDS011;13090;53.422;7.670;2022-08-03T10:04:31;5.20;;;1.77;;
25107;SDS011;13090;53.422;7.670;2022-08-03T10:09:35;5.28;;;1.58;;
25107;SDS011;13090;53.422;7.670;2022-08-03T10:14:39;4.32;;;1.40;;
25107;SDS011;13090;53.422;7.670;2022-08-03T10:19:42;5.07;;;1.13;;
25107;SDS011;13090;53.422;7.670;2022-08-03T10:24:48;5.18;;;1.17;;
25107;SDS011;13090;53.422;7.670;2022-08-03T10:29:55;4.45;;;1.10;;
25107;SDS011;13090;53.422;7.670;2022-08-03T10:35:03;5.40;;;1.50;;
25107;SDS011;13090;53.422;7.670;2022-08-03T10:40:25;3.58;;;1.55;;
25107;SDS011;13090;53.422;7.670;2022-08-03T10:45:49;3.17;;;1.25;;
25107;SDS011;13090;53.422;7.670;2022-08-03T10:50:52;5.40;;;1.23;;
25107;SDS011;13090;53.422;7.670;2022-08-03T10:55:56;8.98;;;1.42;;
25107;SDS011;13090;53.422;7.670;2022-08-03T11:00:59;7.03;;;1.50;;
25107;SDS011;13090;53.422;7.670;2022-08-03T11:06:13;5.03;;;2.20;;
25107;SDS011;13090;53.422;7.670;2022-08-03T11:11:24;6.93;;;1.60;;
25107;SDS011;13090;53.422;7.670;2022-08-03T11:16:27;13.65;;;1.70;;
25107;SDS011;13090;53.422;7.670;2022-08-03T11:27:16;6.78;;;1.73;;
25107;SDS011;13090;53.422;7.670;2022-08-03T11:38:08;7.28;;;1.35;;
25107;SDS011;13090;53.422;7.670;2022-08-03T11:48:47;5.32;;;1.58;;
25107;SDS011;13090;53.422;7.670;2022-08-03T11:53:51;7.03;;;1.63;;
25107;SDS011;13090;53.422;7.670;2022-08-03T11:58:56;9.90;;;1.67;;
25107;SDS011;13090;53.422;7.670;2022-08-03T12:04:19;7.00;;;1.88;;
25107;SDS011;13090;53.422;7.670;2022-08-03T12:09:21;12.57;;;1.80;;
25107;SDS011;13090;53.422;7.670;2022-08-03T12:14:25;4.88;;;1.50;;
25107;SDS011;13090;53.422;7.670;2022-08-03T12:19:51;7.13;;;1.50;;
25107;SDS011;13090;53.422;7.670;2022-08-03T12:24:53;12.73;;;2.28;;
25107;SDS011;13090;53.422;7.670;2022-08-03T12:29:57;7.93;;;1.80;;
25107;SDS011;13090;53.422;7.670;2022-08-03T12:35:01;6.07;;;1.43;;
25107;SDS011;13090;53.422;7.670;2022-08-03T12:40:04;5.53;;;1.30;;
25107;SDS011;13090;53.422;7.670;2022-08-03T12:45:20;6.82;;;1.63;;
25107;SDS011;13090;53.422;7.670;2022-08-03T12:50:24;4.88;;;1.48;;
25107;SDS011;13090;53.422;7.670;2022-08-03T12:55:29;7.10;;;1.55;;
25107;SDS011;13090;53.422;7.670;2022-08-03T13:00:55;9.80;;;1.83;;
25107;SDS011;13090;53.422;7.670;2022-08-03T13:05:58;10.07;;;4.67;;
25107;SDS011;13090;53.422;7.670;2022-08-03T13:16:46;10.37;;;2.00;;
25107;SDS011;13090;53.422;7.670;2022-08-03T13:21:49;9.73;;;2.00;;
25107;SDS011;13090;53.422;7.670;2022-08-03T13:27:04;14.25;;;2.13;;
25107;SDS011;13090;53.422;7.670;2022-08-03T13:32:28;8.70;;;1.70;;
25107;SDS011;13090;53.422;7.670;2022-08-03T13:37:31;8.20;;;1.67;;
25107;SDS011;13090;53.422;7.670;2022-08-03T13:42:34;12.27;;;2.00;;
25107;SDS011;13090;53.422;7.670;2022-08-03T13:47:39;9.85;;;1.98;;
25107;SDS011;13090;53.422;7.670;2022-08-03T13:52:42;10.87;;;2.17;;
25107;SDS011;13090;53.422;7.670;2022-08-03T13:57:45;15.13;;;2.30;;
25107;SDS011;13090;53.422;7.670;2022-08-03T14:03:07;12.50;;;2.15;;
25107;SDS011;13090;53.422;7.670;2022-08-03T14:08:15;8.63;;;2.00;;
25107;SDS011;13090;53.422;7.670;2022-08-03T14:13:17;11.55;;;1.80;;
25107;SDS011;13090;53.422;7.670;2022-08-03T14:18:21;8.68;;;1.98;;
25107;SDS011;13090;53.422;7.670;2022-08-03T14:23:33;9.48;;;1.95;;
25107;SDS011;13090;53.422;7.670;2022-08-03T14:28:37;12.93;;;1.95;;
25107;SDS011;13090;53.422;7.670;2022-08-03T14:33:41;9.15;;;1.80;;
25107;SDS011;13090;53.422;7.670;2022-08-03T14:38:44;6.88;;;1.45;;
25107;SDS011;13090;53.422;7.670;2022-08-03T14:43:46;8.30;;;1.63;;
25107;SDS011;13090;53.422;7.670;2022-08-03T14:49:04;8.55;;;1.42;;
25107;SDS011;13090;53.422;7.670;2022-08-03T14:54:26;11.75;;;2.10;;
25107;SDS011;13090;53.422;7.670;2022-08-03T14:59:29;10.57;;;1.50;;
25107;SDS011;13090;53.422;7.670;2022-08-03T15:04:53;6.53;;;1.75;;
25107;SDS011;13090;53.422;7.670;2022-08-03T15:09:55;8.85;;;2.25;;
25107;SDS011;13090;53.422;7.670;2022-08-03T15:14:58;7.45;;;2.17;;
25107;SDS011;13090;53.422;7.670;2022-08-03T15:20:02;9.65;;;1.67;;
25107;SDS011;13090;53.422;7.670;2022-08-03T15:25:25;7.65;;;1.52;;
25107;SDS011;13090;53.422;7.670;2022-08-03T15:30:50;9.48;;;2.47;;
25107;SDS011;13090;53.422;7.670;2022-08-03T15:35:55;13.65;;;1.52;;
25107;SDS011;13090;53.422;7.670;2022-08-03T15:40:59;3.63;;;1.50;;
25107;SDS011;13090;53.422;7.670;2022-08-03T15:46:01;7.65;;;1.40;;
25107;SDS011;13090;53.422;7.670;2022-08-03T15:51:25;7.53;;;1.35;;
25107;SDS011;13090;53.422;7.670;2022-08-03T15:56:28;9.52;;;4.20;;
25107;SDS011;13090;53.422;7.670;2022-08-03T16:01:30;10.13;;;1.88;;
25107;SDS011;13090;53.422;7.670;2022-08-03T16:06:35;7.18;;;1.80;;
25107;SDS011;13090;53.422;7.670;2022-08-03T16:11:37;6.78;;;1.60;;
25107;SDS011;13090;53.422;7.670;2022-08-03T16:16:40;7.97;;;1.63;;
25107;SDS011;13090;53.422;7.670;2022-08-03T16:21:44;9.75;;;1.90;;
25107;SDS011;13090;53.422;7.670;2022-08-03T16:26:50;10.25;;;2.22;;
25107;SDS011;13090;53.422;7.670;2022-08-03T16:31:53;11.73;;;2.88;;
25107;SDS011;13090;53.422;7.670;2022-08-03T16:36:56;6.25;;;3.05;;
25107;SDS011;13090;53.422;7.670;2022-08-03T16:42:17;11.07;;;3.65;;
25107;SDS011;13090;53.422;7.670;2022-08-03T16:47:19;10.68;;;3.15;;
25107;SDS011;13090;53.422;7.670;2022-08-03T16:52:25;9.98;;;2.38;;
25107;SDS011;13090;53.422;7.670;2022-08-03T16:57:27;9.93;;;2.67;;
25107;SDS011;13090;53.422;7.670;2022-08-03T17:02:51;10.07;;;2.97;;
25107;SDS011;13090;53.422;7.670;2022-08-03T17:07:58;9.65;;;3.25;;
25107;SDS011;13090;53.422;7.670;2022-08-03T17:13:03;10.07;;;2.47;;
25107;SDS011;13090;53.422;7.670;2022-08-03T17:18:06;13.00;;;2.80;;
25107;SDS011;13090;53.422;7.670;2022-08-03T17:23:16;11.88;;;2.90;;
25107;SDS011;13090;53.422;7.670;2022-08-03T17:28:38;12.18;;;2.58;;
25107;SDS011;13090;53.422;7.670;2022-08-03T17:33:56;12.68;;;2.72;;
25107;SDS011;13090;53.422;7.670;2022-08-03T17:39:03;24.75;;;12.20;;
25107;SDS011;13090;53.422;7.670;2022-08-03T17:44:07;17.20;;;5.63;;
25107;SDS011;13090;53.422;7.670;2022-08-03T17:49:29;13.25;;;4.45;;
25107;SDS011;13090;53.422;7.670;2022-08-03T17:54:37;10.70;;;3.05;;
25107;SDS011;13090;53.422;7.670;2022-08-03T18:00:06;14.88;;;3.45;;
25107;SDS011;13090;53.422;7.670;2022-08-03T18:10:20;10.43;;;3.00;;
25107;SDS011;13090;53.422;7.670;2022-08-03T18:15:26;8.30;;;2.65;;
25107;SDS011;13090;53.422;7.670;2022-08-03T18:20:29;13.95;;;2.83;;
25107;SDS011;13090;53.422;7.670;2022-08-03T18:25:43;12.52;;;2.22;;
25107;SDS011;13090;53.422;7.670;2022-08-03T18:30:56;8.27;;;2.88;;
25107;SDS011;13090;53.422;7.670;2022-08-03T18:36:01;8.90;;;2.55;;
25107;SDS011;13090;53.422;7.670;2022-08-03T18:41:06;10.32;;;2.20;;
25107;SDS011;13090;53.422;7.670;2022-08-03T18:46:32;6.30;;;1.92;;
25107;SDS011;13090;53.422;7.670;2022-08-03T18:51:43;8.93;;;2.22;;
25107;SDS011;13090;53.422;7.670;2022-08-03T18:56:57;10.25;;;2.35;;
25107;SDS011;13090;53.422;7.670;2022-08-03T19:02:09;5.55;;;2.10;;
25107;SDS011;13090;53.422;7.670;2022-08-03T19:07:26;11.52;;;2.47;;
25107;SDS011;13090;53.422;7.670;2022-08-03T19:12:41;15.38;;;2.80;;
25107;SDS011;13090;53.422;7.670;2022-08-03T19:17:51;6.53;;;1.98;;
25107;SDS011;13090;53.422;7.670;2022-08-03T19:22:54;10.32;;;2.55;;
25107;SDS011;13090;53.422;7.670;2022-08-03T19:27:59;11.45;;;2.58;;
25107;SDS011;13090;53.422;7.670;2022-08-03T19:33:08;13.10;;;2.60;;
25107;SDS011;13090;53.422;7.670;2022-08-03T19:38:13;7.82;;;2.78;;
25107;SDS011;13090;53.422;7.670;2022-08-03T19:48:59;14.73;;;3.15;;
25107;SDS011;13090;53.422;7.670;2022-08-03T19:54:04;11.90;;;3.00;;
25107;SDS011;13090;53.422;7.670;2022-08-03T19:59:14;11.82;;;3.78;;
25107;SDS011;13090;53.422;7.670;2022-08-03T20:04:18;9.60;;;2.83;;
25107;SDS011;13090;53.422;7.670;2022-08-03T20:09:21;14.88;;;3.53;;
25107;SDS011;13090;53.422;7.670;2022-08-03T20:14:32;8.27;;;3.22;;
25107;SDS011;13090;53.422;7.670;2022-08-03T20:19:35;13.10;;;3.47;;
25107;SDS011;13090;53.422;7.670;2022-08-03T20:24:39;11.50;;;3.13;;
25107;SDS011;13090;53.422;7.670;2022-08-03T20:29:46;17.42;;;3.83;;
25107;SDS011;13090;53.422;7.670;2022-08-03T20:35:08;10.40;;;2.95;;
25107;SDS011;13090;53.422;7.670;2022-08-03T20:40:12;12.57;;;3.30;;
25107;SDS011;13090;53.422;7.670;2022-08-03T20:45:16;7.30;;;3.30;;
25107;SDS011;13090;53.422;7.670;2022-08-03T20:50:39;13.32;;;3.67;;
25107;SDS011;13090;53.422;7.670;2022-08-03T20:55:47;8.10;;;3.42;;
25107;SDS011;13090;53.422;7.670;2022-08-03T21:01:11;16.60;;;3.80;;
25107;SDS011;13090;53.422;7.670;2022-08-03T21:06:16;13.68;;;3.60;;
25107;SDS011;13090;53.422;7.670;2022-08-03T21:11:35;15.20;;;3.85;;
25107;SDS011;13090;53.422;7.670;2022-08-03T21:16:57;6.97;;;2.90;;
25107;SDS011;13090;53.422;7.670;2022-08-03T21:22:44;8.70;;;3.63;;
25107;SDS011;13090;53.422;7.670;2022-08-03T21:28:05;8.98;;;3.10;;
25107;SDS011;13090;53.422;7.670;2022-08-03T21:33:36;16.73;;;4.05;;
25107;SDS011;13090;53.422;7.670;2022-08-03T21:38:53;12.75;;;4.28;;
25107;SDS011;13090;53.422;7.670;2022-08-03T21:44:10;8.50;;;3.75;;
25107;SDS011;13090;53.422;7.670;2022-08-03T21:49:14;12.00;;;3.75;;
25107;SDS011;13090;53.422;7.670;2022-08-03T21:54:37;13.02;;;4.40;;
25107;SDS011;13090;53.422;7.670;2022-08-03T21:59:43;11.23;;;4.40;;
25107;SDS011;13090;53.422;7.670;2022-08-03T22:04:54;11.82;;;4.32;;
25107;SDS011;13090;53.422;7.670;2022-08-03T22:10:06;16.63;;;5.47;;
25107;SDS011;13090;53.422;7.670;2022-08-03T22:15:11;16.63;;;4.93;;
25107;SDS011;13090;53.422;7.670;2022-08-03T22:20:16;15.18;;;5.85;;
25107;SDS011;13090;53.422;7.670;2022-08-03T22:25:18;11.73;;;5.80;;
25107;SDS011;13090;53.422;7.670;2022-08-03T22:30:24;22.58;;;6.95;;
25107;SDS011;13090;53.422;7.670;2022-08-03T22:35:30;20.40;;;7.25;;
25107;SDS011;13090;53.422;7.670;2022-08-03T22:40:49;14.70;;;6.57;;
25107;SDS011;13090;53.422;7.670;2022-08-03T22:45:54;16.98;;;6.82;;
25107;SDS011;13090;53.422;7.670;2022-08-03T22:51:13;18.55;;;7.10;;
25107;SDS011;13090;53.422;7.670;2022-08-03T22:56:16;16.92;;;7.63;;
25107;SDS011;13090;53.422;7.670;2022-08-03T23:01:19;19.63;;;7.55;;
25107;SDS011;13090;53.422;7.670;2022-08-03T23:06:29;17.00;;;7.95;;
25107;SDS011;13090;53.422;7.670;2022-08-03T23:11:34;16.67;;;7.95;;
25107;SDS011;13090;53.422;7.670;2022-08-03T23:16:43;16.35;;;7.10;;
25107;SDS011;13090;53.422;7.670;2022-08-03T23:21:48;15.93;;;7.95;;
25107;SDS011;13090;53.422;7.670;2022-08-03T23:27:01;16.90;;;7.72;;
25107;SDS011;13090;53.422;7.670;2022-08-03T23:32:05;18.25;;;8.48;;
25107;SDS011;13090;53.422;7.670;2022-08-03T23:37:10;16.02;;;7.18;;
25107;SDS011;13090;53.422;7.670;2022-08-03T23:42:15;25.92;;;8.27;;
25107;SDS011;13090;53.422;7.670;2022-08-03T23:47:19;18.98;;;7.93;;
25107;SDS011;13090;53.422;7.670;2022-08-03T23:52:27;18.42;;;8.65;;
25107;SDS011;13090;53.422;7.670;2022-08-03T23:57:35;26.52;;;8.90;;
